Time;durP1;ratioP1;P1;durP2;ratioP2;P2;SDS_P1;SDS_P2;PMS_P1;PMS_P2;Temp;Humidity;BMP_temperature;BMP_pressure;BME280_temperature;BME280_humidity;BME280_pressure;Samples;Min_cycle;Max_cycle;Signal;HPM_P1;HPM_P2
2022/04/08 00:02:06;;;;;;;1.77;0.87;;;12.70;79.70;12.70;94775.00;;;;4959292;28;20227;-81
2022/04/08 00:04:33;;;;;;;2.90;0.93;;;12.60;79.50;12.70;94780.00;;;;4979437;28;20206;-80
2022/04/08 00:07:00;;;;;;;0.80;0.50;;;12.60;79.50;12.70;94773.00;;;;4978007;28;20203;-81
2022/04/08 00:09:28;;;;;;;1.03;0.60;;;12.60;79.60;12.70;94770.00;;;;4974668;28;20206;-79
2022/04/08 00:11:56;;;;;;;1.27;0.70;;;12.60;79.60;12.70;94750.00;;;;4956636;28;20219;-79
2022/04/08 00:14:23;;;;;;;1.67;0.60;;;12.60;79.60;12.70;94773.00;;;;4972923;28;20234;-80
2022/04/08 00:16:51;;;;;;;1.10;0.60;;;12.60;79.70;12.80;94787.00;;;;4973106;28;20282;-80
2022/04/08 00:19:18;;;;;;;1.20;0.50;;;12.60;79.80;12.80;94781.00;;;;4973449;28;20227;-80
2022/04/08 00:21:48;;;;;;;0.93;0.60;;;12.60;79.90;12.80;94797.00;;;;4972609;28;20220;-80
2022/04/08 00:24:17;;;;;;;2.10;0.40;;;12.60;80.00;12.80;94787.00;;;;4969565;28;20225;-80
2022/04/08 00:26:46;;;;;;;1.50;0.50;;;12.60;79.90;12.80;94799.00;;;;4973009;28;20203;-80
2022/04/08 00:29:13;;;;;;;2.23;0.70;;;12.60;80.00;12.80;94805.00;;;;4972001;28;20211;-80
2022/04/08 00:31:40;;;;;;;0.50;0.50;;;12.60;79.90;12.80;94791.00;;;;4971841;28;20561;-80
2022/04/08 00:34:08;;;;;;;0.57;0.43;;;12.70;80.10;12.80;94811.00;;;;4956592;28;20204;-79
2022/04/08 00:36:35;;;;;;;1.40;0.50;;;12.70;80.20;12.80;94805.00;;;;4959420;28;20192;-80
2022/04/08 00:39:02;;;;;;;0.47;0.40;;;12.70;80.30;12.90;94802.00;;;;4972509;28;20223;-80
2022/04/08 00:41:29;;;;;;;1.67;0.70;;;12.70;80.40;12.90;94807.00;;;;4978451;28;20216;-81
2022/04/08 00:43:56;;;;;;;0.77;0.40;;;12.70;81.00;12.90;94813.00;;;;4981392;28;20203;-80
2022/04/08 00:46:24;;;;;;;0.83;0.40;;;12.70;80.30;13.00;94818.00;;;;4983185;28;20268;-83
2022/04/08 00:48:51;;;;;;;0.83;0.30;;;12.70;80.40;13.00;94806.00;;;;4987331;28;20199;-84
2022/04/08 00:51:21;;;;;;;1.27;0.40;;;12.80;80.50;13.00;94815.00;;;;4985605;28;20218;-83
2022/04/08 00:53:49;;;;;;;1.67;0.70;;;12.70;80.60;13.00;94828.00;;;;4971586;28;20204;-83
2022/04/08 00:56:17;;;;;;;1.23;0.50;;;12.80;80.60;13.00;94843.00;;;;4976161;28;20199;-82
2022/04/08 00:58:44;;;;;;;1.53;0.60;;;12.80;80.50;13.00;94838.00;;;;4983115;28;20227;-83
2022/04/08 01:01:11;;;;;;;1.93;0.60;;;12.80;80.50;13.00;94840.00;;;;4982374;28;20700;-83
2022/04/08 01:03:38;;;;;;;2.43;0.50;;;12.80;80.50;13.00;94849.00;;;;4980904;28;20672;-83
2022/04/08 01:06:05;;;;;;;2.40;0.80;;;12.80;80.50;13.00;94839.00;;;;4981357;28;20206;-83
2022/04/08 01:08:35;;;;;;;1.93;0.60;;;12.80;80.30;13.00;94846.00;;;;4980436;28;20204;-83
2022/04/08 01:11:03;;;;;;;2.23;0.80;;;12.80;80.30;13.00;94854.00;;;;4982366;28;20269;-83
2022/04/08 01:13:30;;;;;;;1.50;0.70;;;12.80;80.20;13.00;94851.00;;;;4981300;28;20195;-84
2022/04/08 01:15:57;;;;;;;1.33;0.77;;;12.80;80.10;13.00;94859.00;;;;4980606;28;20206;-82
2022/04/08 01:18:24;;;;;;;1.90;0.77;;;12.80;80.10;13.00;94853.00;;;;4980068;28;20219;-83
2022/04/08 01:20:51;;;;;;;3.13;0.90;;;12.80;80.10;13.00;94852.00;;;;4981019;28;20199;-83
2022/04/08 01:23:18;;;;;;;1.53;0.90;;;12.80;80.20;13.00;94842.00;;;;4972663;28;20235;-83
2022/04/08 01:25:47;;;;;;;1.37;0.50;;;12.80;80.10;13.00;94860.00;;;;4957414;29;20227;-80
2022/04/08 01:28:14;;;;;;;2.70;0.53;;;12.80;80.00;13.00;94870.00;;;;4960075;29;20204;-80
2022/04/08 01:30:41;;;;;;;1.93;0.73;;;12.80;80.10;13.00;94865.00;;;;4964456;28;20201;-79
2022/04/08 01:33:08;;;;;;;1.63;0.60;;;12.80;80.20;13.00;94860.00;;;;4969370;28;20234;-80
2022/04/08 01:35:35;;;;;;;2.17;0.70;;;12.80;80.10;13.00;94881.00;;;;4973168;28;20564;-80
2022/04/08 01:38:02;;;;;;;1.60;0.70;;;12.80;80.00;13.00;94887.00;;;;4978222;28;20203;-80
2022/04/08 01:40:29;;;;;;;2.40;0.90;;;12.80;80.00;13.00;94891.00;;;;4978972;28;20192;-79
2022/04/08 01:42:57;;;;;;;2.30;0.90;;;12.80;80.00;13.00;94892.00;;;;4977917;28;20587;-80
2022/04/08 01:45:24;;;;;;;2.33;0.63;;;12.80;79.80;13.00;94899.00;;;;4976487;28;20298;-80
2022/04/08 01:47:51;;;;;;;2.37;0.80;;;12.80;79.80;13.00;94910.00;;;;4976557;28;20309;-81
2022/04/08 01:50:20;;;;;;;2.77;0.90;;;12.80;79.80;12.90;94915.00;;;;4958050;29;20206;-80
2022/04/08 01:52:48;;;;;;;2.60;0.87;;;12.80;79.60;12.90;94911.00;;;;4963638;28;20227;-80
2022/04/08 01:55:15;;;;;;;1.57;0.90;;;12.80;79.40;12.90;94903.00;;;;4975381;28;20200;-80
2022/04/08 01:57:43;;;;;;;1.37;1.00;;;12.80;79.50;12.90;94903.00;;;;4974509;28;20194;-80
2022/04/08 02:00:13;;;;;;;1.90;0.70;;;12.70;79.40;12.90;94909.00;;;;4977941;28;20226;-81
2022/04/08 02:02:40;;;;;;;3.40;0.87;;;12.70;79.20;12.90;94924.00;;;;4977856;28;20223;-80
2022/04/08 02:05:09;;;;;;;1.43;0.60;;;12.70;79.10;12.90;94922.00;;;;4979683;28;20203;-79
2022/04/08 02:07:36;;;;;;;5.67;0.97;;;12.70;79.00;12.90;94928.00;;;;4979909;28;20196;-80
2022/04/08 02:10:04;;;;;;;1.30;0.77;;;12.70;79.10;12.80;94940.00;;;;4979456;28;20207;-81
2022/04/08 02:12:31;;;;;;;1.50;0.90;;;12.70;79.10;12.80;94919.00;;;;4978527;28;20618;-80
2022/04/08 02:14:58;;;;;;;1.27;0.80;;;12.70;79.00;12.80;94919.00;;;;4978207;28;20226;-79
2022/04/08 02:17:28;;;;;;;4.63;1.00;;;12.70;78.90;12.80;94917.00;;;;4978155;28;20199;-80
2022/04/08 02:19:56;;;;;;;2.77;1.13;;;12.70;79.00;12.80;94917.00;;;;4978420;28;20235;-80
2022/04/08 02:22:24;;;;;;;2.17;0.90;;;12.70;78.90;12.80;94939.00;;;;4979318;28;20211;-81
2022/04/08 02:24:52;;;;;;;3.00;0.83;;;12.60;78.90;12.80;94946.00;;;;4978686;28;20191;-80
2022/04/08 02:27:22;;;;;;;1.50;1.00;;;12.60;78.80;12.80;94953.00;;;;4982858;28;20669;-80
2022/04/08 02:29:49;;;;;;;2.07;0.80;;;12.60;78.60;12.80;94953.00;;;;4983053;28;20261;-80
2022/04/08 02:32:16;;;;;;;1.80;1.00;;;12.60;78.20;12.80;94955.00;;;;4979038;28;20211;-81
2022/04/08 02:34:44;;;;;;;4.10;1.10;;;12.60;78.30;12.70;94961.00;;;;4960937;28;20200;-80
2022/04/08 02:37:11;;;;;;;3.77;0.90;;;12.60;78.20;12.70;94959.00;;;;4962395;28;20295;-79
2022/04/08 02:39:39;;;;;;;2.73;0.83;;;12.50;77.90;12.70;94961.00;;;;4974734;28;20662;-80
2022/04/08 02:42:07;;;;;;;1.33;0.70;;;12.50;77.90;12.60;94975.00;;;;5006351;28;20216;-79
2022/04/08 02:44:34;;;;;;;3.00;0.90;;;12.50;77.60;12.60;94972.00;;;;4981996;28;20286;-79
2022/04/08 02:47:01;;;;;;;1.77;0.80;;;12.50;77.30;12.50;94960.00;;;;4980791;28;20195;-79
2022/04/08 02:49:28;;;;;;;2.87;0.90;;;12.40;77.20;12.50;94945.00;;;;4981892;28;20208;-80
2022/04/08 02:51:57;;;;;;;1.77;0.90;;;12.40;77.20;12.50;94945.00;;;;4980175;28;20216;-81
2022/04/08 02:54:24;;;;;;;3.43;0.70;;;12.40;77.00;12.50;94957.00;;;;4980345;28;20225;-82
2022/04/08 02:56:51;;;;;;;3.10;1.00;;;12.30;76.60;12.40;94941.00;;;;4981615;28;20218;-82
2022/04/08 02:59:18;;;;;;;0.97;0.67;;;12.30;76.40;12.40;94964.00;;;;4968447;29;20227;-82
2022/04/08 03:01:45;;;;;;;1.57;0.80;;;12.30;76.50;12.40;94968.00;;;;4976439;28;20216;-83
2022/04/08 03:04:12;;;;;;;3.23;1.00;;;12.20;76.10;12.40;94961.00;;;;4983958;28;20200;-82
2022/04/08 03:06:39;;;;;;;4.97;1.20;;;12.20;75.80;12.40;94970.00;;;;4991447;28;20192;-83
2022/04/08 03:09:08;;;;;;;2.40;0.70;;;12.20;75.60;12.30;94966.00;;;;4983042;28;20206;-82
2022/04/08 03:11:35;;;;;;;2.57;0.90;;;12.20;75.50;12.30;94978.00;;;;4982777;28;20901;-83
2022/04/08 03:14:04;;;;;;;2.70;0.90;;;12.20;75.50;12.30;94975.00;;;;4982795;28;20199;-83
2022/04/08 03:16:32;;;;;;;1.57;0.70;;;12.20;75.70;12.30;94966.00;;;;4982755;28;20301;-82
2022/04/08 03:18:59;;;;;;;2.97;0.87;;;12.10;75.20;12.30;94977.00;;;;4982729;28;20223;-84
2022/04/08 03:21:27;;;;;;;2.80;0.90;;;12.10;75.30;12.20;94972.00;;;;4983285;28;20223;-84
2022/04/08 03:23:54;;;;;;;1.53;0.73;;;12.10;75.20;12.20;94974.00;;;;4983388;28;20204;-83
2022/04/08 03:26:22;;;;;;;3.67;1.10;;;12.10;74.70;12.20;94990.00;;;;4977065;28;20196;-82
2022/04/08 03:28:49;;;;;;;2.00;0.60;;;12.10;74.20;12.10;94984.00;;;;4967090;28;20290;-83
2022/04/08 03:31:17;;;;;;;1.07;0.67;;;12.10;74.60;12.10;94980.00;;;;4988833;28;20206;-83
2022/04/08 03:33:44;;;;;;;1.83;0.90;;;12.00;73.90;12.10;94978.00;;;;4994031;28;20184;-83
2022/04/08 03:36:11;;;;;;;1.43;0.70;;;12.00;74.30;12.10;94974.00;;;;4990082;28;20210;-83
2022/04/08 03:38:38;;;;;;;1.67;0.70;;;12.00;74.30;12.10;94981.00;;;;4986056;28;20196;-83
2022/04/08 03:41:05;;;;;;;2.97;0.83;;;12.00;74.10;12.10;94983.00;;;;4972963;28;20229;-82
2022/04/08 03:43:34;;;;;;;2.03;1.00;;;12.00;74.20;12.10;94980.00;;;;4984499;28;20213;-84
2022/04/08 03:46:02;;;;;;;3.87;1.23;;;12.00;74.20;12.10;95002.00;;;;4984696;28;20191;-83
2022/04/08 03:48:29;;;;;;;1.50;0.70;;;12.00;74.10;12.10;95009.00;;;;4984890;28;20233;-82
2022/04/08 03:50:56;;;;;;;1.90;0.90;;;12.00;74.10;12.10;95015.00;;;;4985102;28;20223;-84
2022/04/08 03:53:23;;;;;;;2.43;0.73;;;12.00;73.90;12.10;95016.00;;;;4983197;28;20286;-82
2022/04/08 03:55:50;;;;;;;4.07;0.93;;;12.00;74.40;12.20;95015.00;;;;4984025;28;20282;-83
2022/04/08 03:58:17;;;;;;;2.43;0.70;;;12.00;74.20;12.20;95011.00;;;;4982929;28;20199;-82
2022/04/08 04:00:45;;;;;;;1.83;0.70;;;12.00;74.00;12.20;95005.00;;;;4981855;28;20229;-83
2022/04/08 04:03:13;;;;;;;2.63;1.00;;;12.00;73.80;12.10;95014.00;;;;4976698;28;20549;-84
2022/04/08 04:05:39;;;;;;;2.73;1.00;;;12.00;74.00;12.10;95020.00;;;;4981427;28;20749;-83
2022/04/08 04:08:09;;;;;;;2.00;0.80;;;12.00;73.90;12.20;95028.00;;;;4981704;28;20223;-83
2022/04/08 04:10:37;;;;;;;2.50;0.60;;;12.00;73.80;12.20;95030.00;;;;4979820;28;20211;-84
2022/04/08 04:13:04;;;;;;;4.20;0.97;;;12.00;74.20;12.20;95033.00;;;;4976897;28;20197;-82
2022/04/08 04:15:30;;;;;;;2.40;0.83;;;12.00;73.70;12.20;95042.00;;;;4960890;29;20234;-83
2022/04/08 04:17:59;;;;;;;1.40;0.80;;;12.00;74.00;12.30;95043.00;;;;4979543;28;20674;-83
2022/04/08 04:20:26;;;;;;;4.67;1.07;;;12.10;74.00;12.30;95054.00;;;;4980154;28;20226;-83
2022/04/08 04:22:54;;;;;;;1.73;0.73;;;12.10;74.00;12.30;95050.00;;;;4978332;28;20224;-83
2022/04/08 04:25:21;;;;;;;1.63;0.70;;;12.10;73.80;12.30;95058.00;;;;4981794;28;20204;-83
2022/04/08 04:27:48;;;;;;;3.23;0.97;;;12.10;73.90;12.30;95057.00;;;;4980724;28;20195;-83
2022/04/08 04:30:15;;;;;;;2.50;0.67;;;12.10;74.20;12.30;95061.00;;;;4980165;28;20206;-84
2022/04/08 04:32:42;;;;;;;0.70;0.60;;;12.10;73.90;12.30;95065.00;;;;4979476;28;20718;-83
2022/04/08 04:35:10;;;;;;;1.07;0.53;;;12.10;74.10;12.30;95067.00;;;;4974935;28;20556;-84
2022/04/08 04:37:38;;;;;;;2.07;0.93;;;12.10;74.20;12.30;95064.00;;;;4965169;28;20202;-83
2022/04/08 04:40:08;;;;;;;1.40;0.73;;;12.10;74.50;12.30;95073.00;;;;4963254;28;20326;-83
2022/04/08 04:42:35;;;;;;;1.57;0.70;;;12.10;74.30;12.30;95076.00;;;;4969997;28;20216;-82
2022/04/08 04:45:02;;;;;;;2.60;1.13;;;12.20;74.50;12.40;95077.00;;;;4973408;28;20580;-83
2022/04/08 04:47:29;;;;;;;1.47;0.60;;;12.20;74.40;12.40;95074.00;;;;4972058;28;20272;-83
2022/04/08 04:49:56;;;;;;;2.17;0.60;;;12.20;74.50;12.40;95072.00;;;;4967015;28;20282;-84
2022/04/08 04:52:25;;;;;;;2.53;0.83;;;12.20;74.90;12.40;95071.00;;;;4970333;28;20251;-83
2022/04/08 04:54:52;;;;;;;3.50;1.27;;;12.20;75.20;12.40;95080.00;;;;4959413;28;20204;-85
2022/04/08 04:57:19;;;;;;;3.83;1.20;;;12.20;75.50;12.40;95081.00;;;;4974813;28;20203;-83
2022/04/08 04:59:45;;;;;;;2.63;1.07;;;12.20;75.80;12.40;95081.00;;;;4978043;28;20229;-83
2022/04/08 05:02:12;;;;;;;1.47;0.87;;;12.20;75.90;12.50;95083.00;;;;4974549;28;20218;-82
2022/04/08 05:04:39;;;;;;;3.00;0.70;;;12.20;76.00;12.50;95092.00;;;;4977062;28;20195;-82
2022/04/08 05:07:07;;;;;;;2.33;1.00;;;12.20;76.10;12.50;95095.00;;;;4978443;28;20198;-83
2022/04/08 05:09:38;;;;;;;2.80;1.37;;;12.20;76.20;12.60;95095.00;;;;4978122;28;20218;-83
2022/04/08 05:12:06;;;;;;;2.00;1.20;;;12.30;76.60;12.60;95102.00;;;;4977456;28;20241;-83
2022/04/08 05:14:34;;;;;;;2.50;1.10;;;12.30;76.70;12.60;95097.00;;;;4977857;28;20206;-79
2022/04/08 05:17:01;;;;;;;4.53;1.90;;;12.30;77.10;12.60;95100.00;;;;4973818;28;20285;-80
2022/04/08 05:19:28;;;;;;;3.27;1.13;;;12.30;77.40;12.60;95102.00;;;;4973415;28;20685;-80
2022/04/08 05:21:55;;;;;;;4.23;1.17;;;12.30;77.40;12.60;95106.00;;;;4975185;28;20635;-82
2022/04/08 05:24:22;;;;;;;2.23;1.13;;;12.30;77.40;12.70;95102.00;;;;4963606;28;20679;-80
2022/04/08 05:26:50;;;;;;;2.50;0.83;;;12.40;77.60;12.70;95104.00;;;;4973541;28;20207;-83
2022/04/08 05:29:17;;;;;;;1.70;1.00;;;12.40;77.90;12.70;95110.00;;;;4967125;28;20215;-81
2022/04/08 05:31:44;;;;;;;3.17;1.30;;;12.40;77.80;12.80;95112.00;;;;4962370;28;20302;-83
2022/04/08 05:34:11;;;;;;;2.03;1.00;;;12.40;77.70;12.80;95113.00;;;;4974055;28;20683;-83
2022/04/08 05:36:38;;;;;;;2.23;1.17;;;12.40;77.60;12.80;95115.00;;;;4974521;28;20210;-81
2022/04/08 05:39:05;;;;;;;1.83;0.73;;;12.50;77.50;12.90;95105.00;;;;4976781;28;20294;-82
2022/04/08 05:41:32;;;;;;;2.53;0.87;;;12.50;77.30;12.90;95112.00;;;;4977617;28;20219;-80
2022/04/08 05:44:01;;;;;;;1.40;0.60;;;12.50;76.60;12.90;95111.00;;;;4977520;28;20196;-81
2022/04/08 05:46:28;;;;;;;3.73;1.07;;;12.50;75.60;12.80;95117.00;;;;4973616;28;20286;-81
2022/04/08 05:48:55;;;;;;;2.17;0.70;;;12.50;75.30;12.80;95111.00;;;;4975504;28;20374;-82
2022/04/08 05:51:22;;;;;;;2.10;0.70;;;12.50;74.80;12.80;95108.00;;;;4998827;28;20229;-81
2022/04/08 05:53:49;;;;;;;1.40;0.73;;;12.50;73.80;12.80;95123.00;;;;4979841;28;20204;-80
2022/04/08 05:56:16;;;;;;;1.80;0.90;;;12.50;73.30;12.80;95125.00;;;;5036989;28;20196;-81
2022/04/08 05:58:43;;;;;;;1.13;0.73;;;12.50;72.60;12.80;95131.00;;;;5029652;28;20195;-81
2022/04/08 06:01:11;;;;;;;1.60;0.60;;;12.50;71.50;12.80;95139.00;;;;4981207;28;20228;-81
2022/04/08 06:03:38;;;;;;;1.33;0.40;;;12.50;71.40;12.80;95153.00;;;;4981488;28;20202;-81
2022/04/08 06:06:05;;;;;;;2.00;0.50;;;12.50;71.50;12.80;95144.00;;;;4980537;28;20205;-81
2022/04/08 06:08:33;;;;;;;2.20;0.37;;;12.50;69.40;12.70;95138.00;;;;5015685;28;20192;-81
2022/04/08 06:11:00;;;;;;;2.83;0.67;;;12.50;69.20;12.70;95155.00;;;;4978964;28;20265;-81
2022/04/08 06:13:27;;;;;;;0.47;0.30;;;12.50;68.70;12.70;95157.00;;;;4979105;28;20204;-81
2022/04/08 06:15:55;;;;;;;2.23;0.57;;;12.50;69.10;12.70;95167.00;;;;4979761;28;20203;-81
2022/04/08 06:18:23;;;;;;;2.47;0.60;;;12.50;69.40;12.70;95156.00;;;;4965417;28;20641;-82
2022/04/08 06:20:50;;;;;;;1.27;0.53;;;12.50;69.10;12.70;95166.00;;;;4982458;28;20226;-81
2022/04/08 06:23:18;;;;;;;1.03;0.43;;;12.50;69.20;12.70;95164.00;;;;4975743;28;20207;-81
2022/04/08 06:25:45;;;;;;;1.87;0.50;;;12.50;69.60;12.70;95162.00;;;;4978644;28;20200;-82
2022/04/08 06:28:12;;;;;;;2.20;0.50;;;12.50;69.50;12.70;95151.00;;;;4978222;28;20207;-82
2022/04/08 06:30:40;;;;;;;1.53;0.57;;;12.50;69.60;12.70;95158.00;;;;4974270;28;20214;-81
2022/04/08 06:33:09;;;;;;;1.93;0.90;;;12.50;69.80;12.70;95165.00;;;;4978330;28;20199;-82
2022/04/08 06:35:38;;;;;;;1.13;0.63;;;12.50;69.40;12.80;95171.00;;;;4980272;28;20303;-83
2022/04/08 06:38:07;;;;;;;0.77;0.30;;;12.50;69.90;12.80;95161.00;;;;4979091;28;20206;-82
2022/04/08 06:40:38;;;;;;;2.07;0.80;;;12.50;70.10;12.80;95163.00;;;;4981494;23;20228;-87
2022/04/08 06:43:05;;;;;;;1.60;0.50;;;12.50;69.60;12.80;95174.00;;;;4960149;28;20208;-87
2022/04/08 06:45:32;;;;;;;0.60;0.40;;;12.50;68.90;12.70;95177.00;;;;5057971;28;20280;-87
2022/04/08 06:48:00;;;;;;;2.73;0.53;;;12.60;70.00;12.70;95182.00;;;;4958297;28;20196;-87
2022/04/08 06:50:28;;;;;;;0.80;0.40;;;12.50;69.80;12.70;95183.00;;;;4961200;28;20601;-87
2022/04/08 06:53:00;;;;;;;0.80;0.47;;;12.50;69.70;12.70;95178.00;;;;4971452;28;20196;-86
2022/04/08 06:55:28;;;;;;;1.43;0.70;;;12.50;70.20;12.70;95178.00;;;;4962313;28;20265;-86
2022/04/08 06:57:57;;;;;;;1.83;0.73;;;12.50;70.70;12.70;95178.00;;;;4945201;28;20207;-87
2022/04/08 07:00:24;;;;;;;1.00;0.63;;;12.50;70.90;12.80;95190.00;;;;4961734;28;20242;-86
2022/04/08 07:02:51;;;;;;;1.50;0.50;;;12.50;71.60;12.80;95189.00;;;;4977793;28;20686;-86
2022/04/08 07:05:18;;;;;;;1.77;0.70;;;12.50;72.40;12.90;95189.00;;;;4957831;28;20208;-86
2022/04/08 07:07:46;;;;;;;2.17;0.50;;;12.60;72.90;12.90;95183.00;;;;4957928;28;20204;-87
2022/04/08 07:10:15;;;;;;;1.13;0.50;;;12.60;73.10;13.00;95183.00;;;;4965418;28;20234;-88
2022/04/08 07:12:42;;;;;;;1.33;0.57;;;12.60;73.50;13.00;95177.00;;;;4957412;29;20211;-87
2022/04/08 07:15:10;;;;;;;2.80;0.60;;;12.60;74.00;13.00;95181.00;;;;4973303;28;20207;-86
2022/04/08 07:17:38;;;;;;;1.20;0.50;;;12.60;74.40;13.00;95168.00;;;;4972940;28;20579;-87
2022/04/08 07:20:07;;;;;;;1.67;0.47;;;12.60;74.70;13.00;95167.00;;;;4969166;28;20199;-86
2022/04/08 07:22:34;;;;;;;1.90;0.60;;;12.60;74.90;13.00;95167.00;;;;4942748;29;20226;-86
2022/04/08 07:25:01;;;;;;;1.13;0.50;;;12.60;75.00;13.00;95167.00;;;;4955409;28;20250;-86
2022/04/08 07:27:30;;;;;;;1.53;0.60;;;12.70;74.90;13.00;95158.00;;;;4976858;28;20195;-86
2022/04/08 07:29:57;;;;;;;1.00;0.47;;;12.60;75.00;13.00;95157.00;;;;4961271;28;20677;-87
2022/04/08 07:32:24;;;;;;;1.20;0.73;;;12.60;75.20;13.00;95158.00;;;;4935969;28;20225;-86
2022/04/08 07:34:52;;;;;;;0.50;0.50;;;12.60;75.40;13.00;95155.00;;;;4963693;28;20572;-85
2022/04/08 07:37:29;;;;;;;1.27;0.67;;;12.60;75.70;13.00;95157.00;;;;4964953;28;20202;-86
2022/04/08 07:39:56;;;;;;;2.30;0.80;;;12.60;76.10;13.00;95152.00;;;;4966751;28;20200;-87
2022/04/08 07:42:23;;;;;;;1.60;0.83;;;12.60;76.40;13.10;95152.00;;;;4971054;28;20216;-87
2022/04/08 07:44:52;;;;;;;1.77;0.80;;;12.70;77.10;13.20;95154.00;;;;5025228;28;20199;-87
2022/04/08 07:47:20;;;;;;;1.00;0.63;;;12.70;77.50;13.30;95151.00;;;;4967790;28;20195;-86
2022/04/08 07:49:47;;;;;;;2.07;0.80;;;12.70;77.60;13.30;95156.00;;;;4979192;28;20672;-87
2022/04/08 07:52:14;;;;;;;1.23;0.63;;;12.80;77.30;13.30;95152.00;;;;4976194;28;20234;-87
2022/04/08 07:54:43;;;;;;;1.33;0.87;;;12.80;77.00;13.30;95150.00;;;;4951755;28;20636;-87
2022/04/08 07:57:13;;;;;;;2.50;1.07;;;12.90;77.20;13.30;95142.00;;;;4974926;28;20199;-86
2022/04/08 07:59:40;;;;;;;1.47;0.90;;;12.90;77.10;13.40;95137.00;;;;4975949;28;20288;-87
2022/04/08 08:02:10;;;;;;;1.87;0.83;;;12.90;77.10;13.40;95137.00;;;;4958612;28;20227;-87
2022/04/08 08:04:37;;;;;;;1.57;0.77;;;12.90;77.80;13.50;95139.00;;;;4967451;28;20204;-87
2022/04/08 08:07:04;;;;;;;1.73;1.10;;;13.00;78.20;13.60;95141.00;;;;4981619;28;20204;-87
2022/04/08 08:09:32;;;;;;;1.97;0.90;;;13.00;78.50;13.70;95140.00;;;;4963831;28;20207;-87
2022/04/08 08:11:59;;;;;;;1.47;1.00;;;13.10;79.40;13.80;95129.00;;;;4962061;28;20303;-86
2022/04/08 08:14:26;;;;;;;1.47;0.90;;;13.20;78.80;13.90;95133.00;;;;5007532;28;20270;-87
2022/04/08 08:16:53;;;;;;;1.40;0.90;;;13.30;78.80;14.00;95131.00;;;;4948351;28;20205;-86
2022/04/08 08:19:22;;;;;;;2.60;1.17;;;13.30;78.10;14.00;95131.00;;;;4952348;28;20206;-87
2022/04/08 08:21:49;;;;;;;2.93;1.00;;;13.40;77.80;14.10;95128.00;;;;4958995;28;20243;-87
2022/04/08 08:24:16;;;;;;;2.37;0.90;;;13.40;77.30;14.10;95123.00;;;;4960753;28;20204;-87
2022/04/08 08:26:43;;;;;;;0.87;0.83;;;13.50;77.50;14.10;95122.00;;;;4971339;28;21023;-86
2022/04/08 08:29:10;;;;;;;1.37;0.80;;;13.50;77.70;14.10;95122.00;;;;4961836;28;20295;-87
2022/04/08 08:31:37;;;;;;;2.70;1.20;;;13.50;77.60;14.10;95123.00;;;;4974018;28;20620;-87
2022/04/08 08:34:04;;;;;;;2.57;1.43;;;13.50;77.70;14.10;95109.00;;;;4968276;28;20208;-87
2022/04/08 08:36:32;;;;;;;1.67;1.57;;;13.50;77.60;14.10;95119.00;;;;4969032;28;20650;-87
2022/04/08 08:39:01;;;;;;;1.87;1.00;;;13.60;77.60;14.10;95120.00;;;;4968856;28;20288;-87
2022/04/08 08:41:30;;;;;;;1.93;1.03;;;13.60;77.80;14.20;95118.00;;;;5000988;28;20227;-87
2022/04/08 08:43:58;;;;;;;1.10;0.87;;;13.60;77.90;14.20;95115.00;;;;5023377;28;20191;-87
2022/04/08 08:46:26;;;;;;;2.93;1.00;;;13.60;78.20;14.30;95110.00;;;;4956342;28;20204;-86
2022/04/08 08:48:57;;;;;;;1.60;0.80;;;13.70;78.50;14.40;95111.00;;;;4958258;28;20192;-87
2022/04/08 08:51:26;;;;;;;2.60;1.00;;;13.70;78.50;14.50;95107.00;;;;4971906;28;20226;-87
2022/04/08 08:53:55;;;;;;;1.37;0.70;;;13.80;78.20;14.50;95103.00;;;;4961143;28;20211;-86
2022/04/08 08:56:22;;;;;;;3.33;1.00;;;13.80;77.70;14.50;95097.00;;;;4962113;28;20199;-87
2022/04/08 08:58:49;;;;;;;1.57;1.00;;;13.90;77.50;14.50;95095.00;;;;4954701;28;20668;-87
2022/04/08 09:01:16;;;;;;;2.17;0.80;;;13.90;77.30;14.50;95097.00;;;;4957990;28;20238;-87
2022/04/08 09:03:44;;;;;;;2.53;1.17;;;13.90;77.20;14.60;95085.00;;;;4954789;28;20586;-86
2022/04/08 09:06:11;;;;;;;1.20;1.10;;;13.90;76.60;14.60;95082.00;;;;4976667;28;20221;-86
2022/04/08 09:08:41;;;;;;;1.10;1.00;;;14.00;76.90;14.60;95091.00;;;;4960824;28;20569;-88
2022/04/08 09:11:09;;;;;;;1.87;1.10;;;14.00;76.90;14.70;95083.00;;;;4954915;28;20228;-86
2022/04/08 09:13:49;;;;;;;1.40;0.90;;;14.00;76.60;14.70;95085.00;;;;4953268;28;20673;-88
2022/04/08 09:16:27;;;;;;;2.10;1.27;;;13.90;76.60;14.70;95081.00;;;;4954912;28;20203;-87
2022/04/08 09:18:54;;;;;;;2.77;0.80;;;14.10;76.70;14.70;95077.00;;;;4962095;28;20207;-87
2022/04/08 09:21:26;;;;;;;1.93;0.87;;;14.10;76.90;14.60;95068.00;;;;4957898;28;20314;-87
2022/04/08 09:23:53;;;;;;;2.00;0.90;;;14.10;77.00;14.60;95071.00;;;;4948922;28;20297;-87
2022/04/08 09:26:22;;;;;;;1.20;0.87;;;14.10;77.20;14.70;95060.00;;;;4934317;29;20224;-88
2022/04/08 09:28:56;;;;;;;2.27;0.80;;;14.10;77.60;14.70;95064.00;;;;4941996;28;20200;-88
2022/04/08 09:31:23;;;;;;;2.00;0.83;;;14.10;77.30;14.70;95060.00;;;;4969947;28;20229;-87
2022/04/08 09:33:53;;;;;;;2.53;0.70;;;14.10;77.30;14.80;95051.00;;;;4973373;28;20220;-87
2022/04/08 09:36:28;;;;;;;2.00;0.80;;;14.10;77.30;14.80;95042.00;;;;4958125;28;20195;-87
2022/04/08 09:38:55;;;;;;;1.50;0.70;;;14.10;77.00;14.80;95038.00;;;;4958676;28;20225;-88
2022/04/08 09:41:38;;;;;;;1.67;0.87;;;14.10;77.50;14.90;95037.00;;;;4962612;28;20227;-87
2022/04/08 09:44:07;;;;;;;2.07;1.00;;;14.20;77.60;14.90;95030.00;;;;4955239;28;20192;-88
2022/04/08 09:46:35;;;;;;;2.23;1.07;;;14.20;77.50;15.00;95027.00;;;;4960832;28;20259;-87
2022/04/08 09:49:02;;;;;;;1.90;0.67;;;14.30;77.40;15.00;95014.00;;;;4969700;28;20199;-87
2022/04/08 09:51:36;;;;;;;1.40;0.73;;;14.30;76.80;15.00;95018.00;;;;4968545;28;20211;-87
2022/04/08 09:54:06;;;;;;;1.17;0.80;;;14.30;77.10;15.10;95003.00;;;;4954711;28;20687;-88
2022/04/08 09:56:37;;;;;;;2.40;0.70;;;14.40;77.70;15.10;94996.00;;;;4949842;28;20199;-87
2022/04/08 09:59:10;;;;;;;1.17;0.63;;;14.40;77.80;15.20;94993.00;;;;4950462;28;20185;-88
2022/04/08 10:01:39;;;;;;;1.33;0.70;;;14.40;77.60;15.20;94996.00;;;;4949311;28;20228;-87
2022/04/08 10:04:08;;;;;;;1.93;0.87;;;14.50;77.50;15.30;94991.00;;;;4955154;28;20728;-88
2022/04/08 10:06:36;;;;;;;1.40;0.90;;;14.50;76.90;15.30;94983.00;;;;4969905;28;20195;-87
2022/04/08 10:09:05;;;;;;;0.90;0.70;;;14.60;76.40;15.30;94985.00;;;;4972694;28;20204;-87
2022/04/08 10:11:46;;;;;;;0.80;0.53;;;14.60;76.80;15.40;94981.00;;;;4931636;29;20702;-87
2022/04/08 10:14:35;;;;;;;1.03;0.80;;;14.60;76.40;15.40;94962.00;;;;4937287;28;20202;-88
2022/04/08 10:17:04;;;;;;;1.57;0.80;;;14.60;76.10;15.40;94960.00;;;;4963270;28;20707;-88
2022/04/08 10:19:32;;;;;;;1.37;0.80;;;14.70;76.60;15.40;94948.00;;;;4962415;28;20255;-88
2022/04/08 10:22:00;;;;;;;1.03;0.93;;;14.70;77.10;15.40;94949.00;;;;4962964;28;20220;-87
2022/04/08 10:24:31;;;;;;;1.63;0.70;;;14.70;77.30;15.50;94941.00;;;;4947988;28;20199;-87
2022/04/08 10:27:09;;;;;;;1.77;0.60;;;14.70;77.30;15.50;94932.00;;;;4975288;28;20180;-87
2022/04/08 10:29:37;;;;;;;1.10;0.50;;;14.70;76.40;15.50;94925.00;;;;4976010;28;20252;-87
2022/04/08 10:32:13;;;;;;;0.90;0.70;;;14.80;76.50;15.60;94915.00;;;;4974017;28;20220;-87
2022/04/08 10:34:41;;;;;;;1.80;0.63;;;14.80;76.70;15.60;94916.00;;;;4955732;28;20665;-88
2022/04/08 10:37:16;;;;;;;1.77;0.70;;;14.80;76.40;15.70;94916.00;;;;4959321;28;20196;-86
2022/04/08 10:39:54;;;;;;;0.77;0.50;;;14.90;76.10;15.70;94905.00;;;;4964986;28;20222;-88
2022/04/08 10:42:23;;;;;;;0.90;0.70;;;14.90;76.20;15.70;94909.00;;;;4976553;28;20319;-87
2022/04/08 10:44:51;;;;;;;1.70;0.60;;;14.90;76.10;15.70;94907.00;;;;5057275;28;20201;-88
2022/04/08 10:47:21;;;;;;;0.93;0.67;;;15.00;76.10;15.60;94887.00;;;;4961911;28;20208;-87
2022/04/08 10:49:53;;;;;;;0.57;0.57;;;14.90;75.50;15.60;94888.00;;;;4954932;28;20200;-88
2022/04/08 10:52:25;;;;;;;0.83;0.70;;;14.90;74.20;15.50;94880.00;;;;4962282;28;20744;-88
2022/04/08 10:55:04;;;;;;;0.87;0.67;;;14.90;74.30;15.40;94878.00;;;;4954107;28;20581;-88
2022/04/08 10:57:37;;;;;;;0.60;0.47;;;14.80;74.20;15.30;94876.00;;;;4954662;28;20196;-88
2022/04/08 11:00:06;;;;;;;1.00;0.60;;;14.80;74.70;15.30;94856.00;;;;4954302;28;20282;-88